Port Stanley — V7EE9 — position and weather

sailwx.info

Track history (hours):
 
Tides and Currents Weather Stations Pressure Air Temp Water Temp Dewpoint Dewpoint Depression Visibility Wind Speed Wind Dir Waves Ship Positions

Port Stanley

Last reported at 2015-Mar-01 05:33 UTC. Time now 2015-Mar-01 20:57 UTC.
Position N 01°17' E 103°44'.

Length 183 m.

MMSI: 538090299.

Date/timePositionNaut miles runAvg speedWind from/ knotsBaromVisibWave heightAir tempDewpointWater temp
2015-Mar-01 05:33N 01°17' E 103°44'4 4.4
2015-Mar-01 04:34N 01°14' E 103°48'0 0.1
2015-Mar-01 03:33N 01°14' E 103°48'0 0.1
2015-Mar-01 02:21N 01°14' E 103°48'0 0.2
2015-Mar-01 01:27N 01°14' E 103°48'0 0.0
2015-Mar-01 00:33N 01°14' E 103°48'0 0.0
2015-Feb-28 23:33N 01°14' E 103°48'0 0.1
2015-Feb-28 22:33N 01°14' E 103°48'0 0.0
2015-Feb-28 21:33N 01°14' E 103°48'0 0.1
2015-Feb-28 20:33N 01°14' E 103°48'0 0.0
2015-Feb-28 19:33N 01°14' E 103°48'0 0.1
2015-Feb-28 18:33N 01°14' E 103°48'0 0.0
2015-Feb-28 17:27N 01°14' E 103°48'0 0.0
2015-Feb-28 16:33N 01°14' E 103°48'0 0.0
2015-Feb-28 15:27N 01°14' E 103°48'0 0.1
2015-Feb-28 14:33N 01°14' E 103°48'0 0.1
2015-Feb-28 13:21N 01°14' E 103°48'0 0.0
2015-Feb-28 12:33N 01°14' E 103°48'0 0.0
2015-Feb-28 08:15N 01°14' E 103°48'0 0.2
2015-Feb-28 07:27N 01°14' E 103°48'0 0.0
2015-Feb-28 06:09N 01°14' E 103°48'0 0.0
2015-Feb-28 05:03N 01°14' E 103°48'0 0.0
2015-Feb-28 04:33N 01°14' E 103°48'0 0.2
2015-Feb-28 03:25N 01°14' E 103°48'3 0.1
2015-Feb-27 07:12N 01°12' E 103°50'6 6.9
2015-Feb-27 06:21N 01°15' E 103°54'0 0.1
2015-Feb-27 05:33N 01°15' E 103°54'0 0.0
2015-Feb-27 04:33N 01°15' E 103°54'0 0.0
2015-Feb-27 02:22N 01°15' E 103°54'0 0.2
2015-Feb-27 01:27N 01°15' E 103°54'0 0.0
2015-Feb-27 00:27N 01°15' E 103°54'0 0.0
2015-Feb-26 22:22N 01°15' E 103°54'0 0.0
2015-Feb-26 21:09N 01°15' E 103°54'0 0.0
2015-Feb-26 19:33N 01°15' E 103°54'0 0.0
2015-Feb-26 18:33N 01°15' E 103°54'0 0.0
2015-Feb-26 16:15N 01°15' E 103°54'0 0.0
2015-Feb-26 14:33N 01°15' E 103°54'0 0.0
2015-Feb-26 13:10N 01°15' E 103°54'0 0.0
2015-Feb-26 12:28N 01°15' E 103°54'0 0.0
2015-Feb-26 11:28N 01°15' E 103°54'0 0.0
2015-Feb-26 10:16N 01°15' E 103°54'0 0.0
2015-Feb-26 09:16N 01°15' E 103°54'0 0.0
2015-Feb-26 08:28N 01°15' E 103°54'0 0.0
2015-Feb-26 07:22N 01°15' E 103°54'0 0.0
2015-Feb-26 06:22N 01°15' E 103°54'0 0.1
2015-Feb-26 04:16N 01°15' E 103°54'0 0.1
2015-Feb-26 03:22N 01°15' E 103°54'0 0.1
2015-Feb-26 02:22N 01°15' E 103°54'0 0.1
2015-Feb-26 01:18N 01°15' E 103°54'0 0.1
2015-Feb-25 23:06N 01°15' E 103°54'0 0.1
2015-Feb-25 22:18N 01°15' E 103°54'0 0.0
2015-Feb-25 21:30N 01°15' E 103°54'0 0.0
2015-Feb-25 20:30N 01°15' E 103°54'0 0.0
2015-Feb-25 19:30N 01°15' E 103°54'0 0.0
2015-Feb-25 18:24N 01°15' E 103°54'0 0.0
2015-Feb-25 17:24N 01°15' E 103°54'0 0.0
2015-Feb-25 16:30N 01°15' E 103°54'0 0.0
2015-Feb-25 15:30N 01°15' E 103°54'0 0.0
2015-Feb-25 14:30N 01°15' E 103°54'0 0.0
2015-Feb-25 13:30N 01°15' E 103°54'0 0.0
2015-Feb-25 12:16N 01°15' E 103°54'0 0.0
2015-Feb-25 11:07N 01°15' E 103°54'0 0.0
2015-Feb-25 09:31N 01°15' E 103°54'0 0.0
2015-Feb-25 08:07N 01°15' E 103°54'0 0.0
2015-Feb-25 07:13N 01°15' E 103°54'0 0.0
2015-Feb-25 06:31N 01°15' E 103°54'0 0.0
2015-Feb-25 05:31N 01°15' E 103°54'0 0.0
2015-Feb-25 04:28N 01°15' E 103°54'1 0.9
2015-Feb-25 03:33N 01°16' E 103°55'7 7.0
2015-Feb-25 02:33N 01°18' E 104°02'0 0.1
2015-Feb-25 00:29N 01°17' E 104°01'0 0.0
2015-Feb-24 22:29N 01°17' E 104°01'0 0.1
2015-Feb-24 21:23N 01°17' E 104°01'0 0.1
2015-Feb-24 20:33N 01°17' E 104°01'0 0.0
2015-Feb-24 19:15N 01°17' E 104°01'0 0.0
2015-Feb-24 18:27N 01°17' E 104°01'0 0.0
2015-Feb-24 17:29N 01°17' E 104°01'0 0.0
2015-Feb-24 16:11N 01°17' E 104°01'0 0.0
2015-Feb-24 15:09N 01°17' E 104°01'0 0.0
2015-Feb-24 14:29N 01°17' E 104°01'0 0.0
2015-Feb-24 13:11N 01°17' E 104°01'0 0.0
2015-Feb-24 12:29N 01°17' E 104°01'0 0.0
2015-Feb-24 11:29N 01°17' E 104°01'0 0.0
2015-Feb-24 10:23N 01°17' E 104°01'0 0.0
2015-Feb-24 09:23N 01°17' E 104°01'0 0.0
2015-Feb-24 08:33N 01°17' E 104°01'0 0.0
2015-Feb-24 07:17N 01°17' E 104°01'0 0.0
2015-Feb-24 06:29N 01°17' E 104°01'0 0.0
2015-Feb-24 05:18N 01°17' E 104°01'0 0.0
2015-Feb-24 04:33N 01°17' E 104°01'0 0.1
2015-Feb-24 03:32N 01°17' E 104°01'3 2.9
2015-Feb-24 02:33N 01°16' E 103°59'5 5.1
2015-Feb-24 01:31N 01°16' E 104°04'  
Track history (hours):
 
Tides and Currents Weather Stations Pressure Air Temp Water Temp Dewpoint Dewpoint Depression Visibility Wind Speed Wind Dir Waves Ship Positions

Port Stanley

Last reported at 2015-Mar-01 05:33 UTC. Time now 2015-Mar-01 20:57 UTC.
Position N 01°17' E 103°44'.

Length 183 m.

MMSI: 538090299.

Date/timePositionNaut miles runAvg speedWind from/ knotsBaromVisibWave heightAir tempDewpointWater temp
2015-Mar-01 05:33N 01°17' E 103°44'4 4.4
2015-Mar-01 04:34N 01°14' E 103°48'0 0.1
2015-Mar-01 03:33N 01°14' E 103°48'0 0.1
2015-Mar-01 02:21N 01°14' E 103°48'0 0.2
2015-Mar-01 01:27N 01°14' E 103°48'0 0.0
2015-Mar-01 00:33N 01°14' E 103°48'0 0.0
2015-Feb-28 23:33N 01°14' E 103°48'0 0.1
2015-Feb-28 22:33N 01°14' E 103°48'0 0.0
2015-Feb-28 21:33N 01°14' E 103°48'0 0.1
2015-Feb-28 20:33N 01°14' E 103°48'0 0.0
2015-Feb-28 19:33N 01°14' E 103°48'0 0.1
2015-Feb-28 18:33N 01°14' E 103°48'0 0.0
2015-Feb-28 17:27N 01°14' E 103°48'0 0.0
2015-Feb-28 16:33N 01°14' E 103°48'0 0.0
2015-Feb-28 15:27N 01°14' E 103°48'0 0.1
2015-Feb-28 14:33N 01°14' E 103°48'0 0.1
2015-Feb-28 13:21N 01°14' E 103°48'0 0.0
2015-Feb-28 12:33N 01°14' E 103°48'0 0.0
2015-Feb-28 08:15N 01°14' E 103°48'0 0.2
2015-Feb-28 07:27N 01°14' E 103°48'0 0.0
2015-Feb-28 06:09N 01°14' E 103°48'0 0.0
2015-Feb-28 05:03N 01°14' E 103°48'0 0.0
2015-Feb-28 04:33N 01°14' E 103°48'0 0.2
2015-Feb-28 03:25N 01°14' E 103°48'3 0.1
2015-Feb-27 07:12N 01°12' E 103°50'6 6.9
2015-Feb-27 06:21N 01°15' E 103°54'0 0.1
2015-Feb-27 05:33N 01°15' E 103°54'0 0.0
2015-Feb-27 04:33N 01°15' E 103°54'0 0.0
2015-Feb-27 02:22N 01°15' E 103°54'0 0.2
2015-Feb-27 01:27N 01°15' E 103°54'0 0.0
2015-Feb-27 00:27N 01°15' E 103°54'0 0.0
2015-Feb-26 22:22N 01°15' E 103°54'0 0.0
2015-Feb-26 21:09N 01°15' E 103°54'0 0.0
2015-Feb-26 19:33N 01°15' E 103°54'0 0.0
2015-Feb-26 18:33N 01°15' E 103°54'0 0.0
2015-Feb-26 16:15N 01°15' E 103°54'0 0.0
2015-Feb-26 14:33N 01°15' E 103°54'0 0.0
2015-Feb-26 13:10N 01°15' E 103°54'0 0.0
2015-Feb-26 12:28N 01°15' E 103°54'0 0.0
2015-Feb-26 11:28N 01°15' E 103°54'0 0.0
2015-Feb-26 10:16N 01°15' E 103°54'0 0.0
2015-Feb-26 09:16N 01°15' E 103°54'0 0.0
2015-Feb-26 08:28N 01°15' E 103°54'0 0.0
2015-Feb-26 07:22N 01°15' E 103°54'0 0.0
2015-Feb-26 06:22N 01°15' E 103°54'0 0.1
2015-Feb-26 04:16N 01°15' E 103°54'0 0.1
2015-Feb-26 03:22N 01°15' E 103°54'0 0.1
2015-Feb-26 02:22N 01°15' E 103°54'0 0.1
2015-Feb-26 01:18N 01°15' E 103°54'0 0.1
2015-Feb-25 23:06N 01°15' E 103°54'0 0.1
2015-Feb-25 22:18N 01°15' E 103°54'0 0.0
2015-Feb-25 21:30N 01°15' E 103°54'0 0.0
2015-Feb-25 20:30N 01°15' E 103°54'0 0.0
2015-Feb-25 19:30N 01°15' E 103°54'0 0.0
2015-Feb-25 18:24N 01°15' E 103°54'0 0.0
2015-Feb-25 17:24N 01°15' E 103°54'0 0.0
2015-Feb-25 16:30N 01°15' E 103°54'0 0.0
2015-Feb-25 15:30N 01°15' E 103°54'0 0.0
2015-Feb-25 14:30N 01°15' E 103°54'0 0.0
2015-Feb-25 13:30N 01°15' E 103°54'0 0.0
2015-Feb-25 12:16N 01°15' E 103°54'0 0.0
2015-Feb-25 11:07N 01°15' E 103°54'0 0.0
2015-Feb-25 09:31N 01°15' E 103°54'0 0.0
2015-Feb-25 08:07N 01°15' E 103°54'0 0.0
2015-Feb-25 07:13N 01°15' E 103°54'0 0.0
2015-Feb-25 06:31N 01°15' E 103°54'0 0.0
2015-Feb-25 05:31N 01°15' E 103°54'0 0.0
2015-Feb-25 04:28N 01°15' E 103°54'1 0.9
2015-Feb-25 03:33N 01°16' E 103°55'7 7.0
2015-Feb-25 02:33N 01°18' E 104°02'0 0.1
2015-Feb-25 00:29N 01°17' E 104°01'0 0.0
2015-Feb-24 22:29N 01°17' E 104°01'0 0.1
2015-Feb-24 21:23N 01°17' E 104°01'0 0.1
2015-Feb-24 20:33N 01°17' E 104°01'0 0.0
2015-Feb-24 19:15N 01°17' E 104°01'0 0.0
2015-Feb-24 18:27N 01°17' E 104°01'0 0.0
2015-Feb-24 17:29N 01°17' E 104°01'0 0.0
2015-Feb-24 16:11N 01°17' E 104°01'0 0.0
2015-Feb-24 15:09N 01°17' E 104°01'0 0.0
2015-Feb-24 14:29N 01°17' E 104°01'0 0.0
2015-Feb-24 13:11N 01°17' E 104°01'0 0.0
2015-Feb-24 12:29N 01°17' E 104°01'0 0.0
2015-Feb-24 11:29N 01°17' E 104°01'0 0.0
2015-Feb-24 10:23N 01°17' E 104°01'0 0.0
2015-Feb-24 09:23N 01°17' E 104°01'0 0.0
2015-Feb-24 08:33N 01°17' E 104°01'0 0.0
2015-Feb-24 07:17N 01°17' E 104°01'0 0.0
2015-Feb-24 06:29N 01°17' E 104°01'0 0.0
2015-Feb-24 05:18N 01°17' E 104°01'0 0.0
2015-Feb-24 04:33N 01°17' E 104°01'0 0.1
2015-Feb-24 03:32N 01°17' E 104°01'3 2.9
2015-Feb-24 02:33N 01°16' E 103°59'5 5.1
2015-Feb-24 01:31N 01°16' E 104°04'  

Dump ship's entire track history